Weather at Diagoras Airport

Public forecast

Using degrees Celsius for public forecast. Weather courtesy of forecast.io.

Current aviation weather report (METAR) for Diagoras Airport

2024/05/28 13:50 (retrieved 33 minutes ago)

LGRP 281350Z 24018KT 9999 FEW018 25/15 Q1010 NOSIG

Aviation forecast (TAF) for Diagoras Airport

2024/05/28 12:12 (retrieved 2 hours ago)

TAF LGRP 281100Z 2812/2912 26014KT 9999 FEW020